Time;durP1;ratioP1;P1;durP2;ratioP2;P2;SDS_P1;SDS_P2;PMS_P1;PMS_P2;Temp;Humidity;BMP_temperature;BMP_pressure;BME280_temperature;BME280_humidity;BME280_pressure;Samples;Min_cycle;Max_cycle;Signal;HPM_P1;HPM_P2
2021/01/27 00:02:38;;;;;;;5.70;3.40;;;;;;;;;;5018907;28;20521;-59
2021/01/27 00:05:21;;;;;;;4.17;2.87;;;;;;;;;;5038058;28;20037;-59
2021/01/27 00:07:47;;;;;;;10.23;5.60;;;;;;;;;;5056205;28;20050;-59
2021/01/27 00:10:50;;;;;;;;;;;;;;;;;;;;;
2021/01/27 00:13:20;;;;;;;5.80;4.43;;;;;;;;;;5054230;28;20025;-59
2021/01/27 00:16:11;;;;;;;8.23;5.07;;;;;;;;;;5056614;28;20033;-59
2021/01/27 00:19:09;;;;;;;;;;;;;;;;;;;;;
2021/01/27 00:21:53;;;;;;;4.90;4.03;;;;;;;;;;5057472;28;20080;-59
2021/01/27 00:24:42;;;;;;;5.10;4.23;;;;;;;;;;5056602;28;20411;-59
2021/01/27 00:27:21;;;;;;;6.07;4.53;;;;;;;;;;5056150;28;20089;-59
2021/01/27 00:29:52;;;;;;;6.17;4.70;;;;;;;;;;5056045;28;20394;-59
2021/01/27 00:32:40;;;;;;;7.73;5.33;;;;;;;;;;5055196;27;20186;-59
2021/01/27 00:38:35;;;;;;;8.23;5.17;;;;;;;;;;5056453;28;20461;-59
2021/01/27 00:41:13;;;;;;;7.73;5.23;;;;;;;;;;5076434;28;20032;-60
2021/01/27 00:47:08;;;;;;;4.60;4.10;;;;;;;;;;5031658;28;20025;-59
2021/01/27 00:50:01;;;;;;;6.40;4.60;;;;;;;;;;5013641;28;20034;-59
2021/01/27 00:52:41;;;;;;;5.57;4.80;;;;;;;;;;5013850;28;20103;-59
2021/01/27 00:55:26;;;;;;;6.65;4.07;;;;;;;;;;5013649;28;20040;-59
2021/01/27 00:58:13;;;;;;;8.27;5.83;;;;;;;;;;4997921;28;20034;-59
2021/01/27 01:00:46;;;;;;;7.37;4.90;;;;;;;;;;5013287;28;20097;-59
2021/01/27 01:03:20;;;;;;;7.80;4.57;;;;;;;;;;5013022;28;20033;-59
2021/01/27 01:09:07;;;;;;;5.50;4.10;;;;;;;;;;5047492;28;20030;-59
2021/01/27 01:11:42;;;;;;;6.63;4.50;;;;;;;;;;5013516;28;20467;-59
2021/01/27 01:14:17;;;;;;;6.53;5.17;;;;;;;;;;5013655;28;20034;-59
2021/01/27 01:16:52;;;;;;;9.60;5.30;;;;;;;;;;5013730;28;20395;-59
2021/01/27 01:19:37;;;;;;;5.60;5.00;;;;;;;;;;5013986;28;20022;-59
2021/01/27 01:22:25;;;;;;;7.17;5.20;;;;;;;;;;5056007;28;20485;-59
2021/01/27 01:28:07;;;;;;;6.63;4.80;;;;;;;;;;5055263;28;20543;-59
2021/01/27 01:34:04;;;;;;;9.13;4.93;;;;;;;;;;5053641;27;20140;-59
2021/01/27 01:36:40;;;;;;;6.17;3.67;;;;;;;;;;5062230;28;20041;-59
2021/01/27 01:39:23;;;;;;;6.97;5.47;;;;;;;;;;5055787;28;20025;-59
2021/01/27 01:45:38;;;;;;;7.80;4.85;;;;;;;;;;5070283;28;20056;-59
2021/01/27 01:48:17;;;;;;;6.10;4.17;;;;;;;;;;5056247;28;20037;-60
2021/01/27 01:51:03;;;;;;;6.07;4.13;;;;;;;;;;5056011;28;20017;-59
2021/01/27 01:53:47;;;;;;;8.00;5.70;;;;;;;;;;5040007;28;20062;-59
2021/01/27 01:56:47;;;;;;;7.60;4.83;;;;;;;;;;5055681;28;20033;-59
2021/01/27 02:02:13;;;;;;;8.07;5.17;;;;;;;;;;5056013;28;20048;-59
2021/01/27 02:05:19;;;;;;;6.17;4.20;;;;;;;;;;5056212;28;20378;-59
2021/01/27 02:07:45;;;;;;;7.83;4.77;;;;;;;;;;5076182;28;20036;-59
2021/01/27 02:10:22;;;;;;;7.33;4.70;;;;;;;;;;5059251;28;20033;-59
2021/01/27 02:16:15;;;;;;;7.17;5.33;;;;;;;;;;5055959;28;20032;-59
2021/01/27 02:19:00;;;;;;;8.90;5.40;;;;;;;;;;5036392;28;20025;-59
2021/01/27 02:21:48;;;;;;;5.63;4.83;;;;;;;;;;5036727;28;20037;-59
2021/01/27 02:24:35;;;;;;;9.77;5.27;;;;;;;;;;5037117;28;20030;-59
2021/01/27 02:27:49;;;;;;;7.27;4.67;;;;;;;;;;5036103;28;20029;-59
2021/01/27 02:33:31;;;;;;;7.83;4.10;;;;;;;;;;4957638;28;20090;-59
2021/01/27 02:36:26;;;;;;;;;;;;;;;;;;;;;
2021/01/27 02:41:54;;;;;;;5.43;3.57;;;;;;;;;;5009063;28;20030;-59
2021/01/27 02:44:53;;;;;;;7.07;4.57;;;;;;;;;;5003014;28;20523;-59
2021/01/27 02:47:25;;;;;;;6.13;4.37;;;;;;;;;;5016433;28;20026;-59
2021/01/27 02:53:23;;;;;;;5.87;4.50;;;;;;;;;;4995956;28;20168;-59
2021/01/27 02:56:21;;;;;;;4.73;3.90;;;;;;;;;;4996785;28;20045;-59
2021/01/27 02:59:14;;;;;;;5.87;4.03;;;;;;;;;;4997719;28;20027;-60
2021/01/27 03:02:07;;;;;;;6.33;4.00;;;;;;;;;;5011188;28;20497;-59
2021/01/27 03:04:45;;;;;;;6.20;4.87;;;;;;;;;;5019678;28;20047;-59
2021/01/27 03:07:18;;;;;;;6.00;3.67;;;;;;;;;;5099785;28;20044;-59
2021/01/27 03:10:13;;;;;;;7.17;4.53;;;;;;;;;;5099895;28;20054;-59
2021/01/27 03:16:06;;;;;;;4.07;3.67;;;;;;;;;;5085303;28;20126;-59
2021/01/27 03:19:01;;;;;;;5.32;4.15;;;;;;;;;;5085289;28;20108;-59
2021/01/27 03:24:50;;;;;;;5.73;4.07;;;;;;;;;;5097344;28;20024;-59
2021/01/27 03:27:46;;;;;;;10.13;4.50;;;;;;;;;;5099268;28;20115;-59
2021/01/27 03:30:31;;;;;;;4.93;4.10;;;;;;;;;;5100198;28;20428;-59
2021/01/27 03:33:21;;;;;;;6.47;4.87;;;;;;;;;;5102863;28;20047;-60
2021/01/27 03:36:32;;;;;;;6.70;4.00;;;;;;;;;;5120740;28;20038;-59
2021/01/27 03:39:17;;;;;;;6.57;4.82;;;;;;;;;;4987003;28;20063;-59
2021/01/27 03:42:06;;;;;;;7.87;4.13;;;;;;;;;;4967658;28;20111;-59
2021/01/27 03:44:41;;;;;;;6.03;4.37;;;;;;;;;;4977155;28;20061;-59
2021/01/27 03:47:34;;;;;;;3.70;3.10;;;;;;;;;;4959732;28;20035;-59
2021/01/27 03:50:17;;;;;;;5.70;4.10;;;;;;;;;;4944054;28;20074;-59
2021/01/27 03:53:30;;;;;;;;;;;;;;;;;;;;;
2021/01/27 03:56:18;;;;;;;3.97;3.43;;;;;;;;;;5043123;28;20120;-59
2021/01/27 04:02:08;;;;;;;5.77;3.83;;;;;;;;;;5037639;28;20064;-60
2021/01/27 04:08:11;;;;;;;5.63;3.40;;;;;;;;;;5019217;28;20041;-59
2021/01/27 04:10:51;;;;;;;5.53;4.13;;;;;;;;;;5074948;28;20032;-59
2021/01/27 04:13:56;;;;;;;5.00;3.93;;;;;;;;;;5078407;28;20552;-59
2021/01/27 04:22:29;;;;;;;4.38;2.97;;;;;;;;;;5117048;28;20038;-59
2021/01/27 04:28:28;;;;;;;4.37;3.80;;;;;;;;;;5040619;28;20065;-59
2021/01/27 04:31:09;;;;;;;5.27;3.50;;;;;;;;;;5035178;28;20411;-59
2021/01/27 04:34:01;;;;;;;4.53;3.40;;;;;;;;;;5032214;28;20057;-59
2021/01/27 04:36:55;;;;;;;5.20;3.10;;;;;;;;;;5033377;28;20037;-59
2021/01/27 04:42:45;;;;;;;4.53;2.87;;;;;;;;;;5032343;28;20029;-59
2021/01/27 04:52:10;;;;;;;7.50;4.35;;;;;;;;;;5028672;28;20040;-59
2021/01/27 04:54:38;;;;;;;;;;;;;;;;;;5031861;28;20420;-59
2021/01/27 05:00:37;;;;;;;4.97;2.70;;;;;;;;;;5023163;28;20030;-59
2021/01/27 05:03:40;;;;;;;7.30;3.43;;;;;;;;;;5027961;28;20490;-59
2021/01/27 05:12:10;;;;;;;4.93;3.60;;;;;;;;;;5030954;28;20025;-59
2021/01/27 05:14:57;;;;;;;3.73;2.63;;;;;;;;;;5015536;28;20487;-59
2021/01/27 05:20:37;;;;;;;4.40;3.30;;;;;;;;;;5031153;28;20120;-59
2021/01/27 05:23:27;;;;;;;4.63;3.20;;;;;;;;;;5031206;28;20022;-59
2021/01/27 05:26:12;;;;;;;6.17;2.80;;;;;;;;;;5014282;28;20501;-59
2021/01/27 05:28:56;;;;;;;3.07;2.60;;;;;;;;;;5027046;28;20034;-59
2021/01/27 05:34:37;;;;;;;4.50;2.83;;;;;;;;;;5027398;28;20105;-60
2021/01/27 05:40:16;;;;;;;4.37;3.37;;;;;;;;;;5020581;28;20057;-60
2021/01/27 05:42:58;;;;;;;3.25;2.38;;;;;;;;;;5030592;28;20029;-59
2021/01/27 05:45:49;;;;;;;5.27;3.30;;;;;;;;;;5031540;28;20030;-59
2021/01/27 05:48:36;;;;;;;4.35;3.10;;;;;;;;;;5031452;28;20025;-59
2021/01/27 05:51:36;;;;;;;;;;;;;;;;;;;;;
2021/01/27 05:57:28;;;;;;;4.83;3.57;;;;;;;;;;5025532;28;20034;-59
2021/01/27 06:00:25;;;;;;;6.10;3.63;;;;;;;;;;5034028;28;20034;-59
2021/01/27 06:03:10;;;;;;;4.37;2.70;;;;;;;;;;5034337;28;20463;-59
2021/01/27 06:08:50;;;;;;;4.80;3.10;;;;;;;;;;5035105;28;20033;-59
2021/01/27 06:14:55;;;;;;;4.13;3.17;;;;;;;;;;5037600;28;20029;-59
2021/01/27 06:17:59;;;;;;;5.07;4.07;;;;;;;;;;5050334;28;20034;-59
2021/01/27 06:20:33;;;;;;;3.70;2.67;;;;;;;;;;5035527;28;20182;-60
2021/01/27 06:23:37;;;;;;;5.23;3.40;;;;;;;;;;5031990;28;20105;-59
2021/01/27 06:26:22;;;;;;;5.70;3.57;;;;;;;;;;5055015;28;20025;-59
2021/01/27 06:29:09;;;;;;;5.10;3.33;;;;;;;;;;5055165;28;20580;-59
2021/01/27 06:32:20;;;;;;;;;;;;;;;;;;;;;
2021/01/27 06:38:10;;;;;;;5.63;2.87;;;;;;;;;;5054049;28;20424;-59
2021/01/27 06:41:03;;;;;;;7.50;4.17;;;;;;;;;;5058204;28;20519;-59
2021/01/27 06:47:11;;;;;;;;;;;;;;;;;;;;;
2021/01/27 06:50:14;;;;;;;4.13;2.97;;;;;;;;;;5053866;28;20108;-59
2021/01/27 06:53:21;;;;;;;;;;;;;;;;;;;;;
2021/01/27 06:56:32;;;;;;;4.03;2.87;;;;;;;;;;5057758;28;20405;-59
2021/01/27 06:59:25;;;;;;;3.90;2.60;;;;;;;;;;5055525;28;20470;-59
2021/01/27 07:05:23;;;;;;;3.55;3.03;;;;;;;;;;5049233;28;20040;-59
2021/01/27 07:08:08;;;;;;;4.13;2.63;;;;;;;;;;5034505;28;20482;-59
2021/01/27 07:10:55;;;;;;;7.10;3.70;;;;;;;;;;5034599;28;20486;-59
2021/01/27 07:13:47;;;;;;;5.23;3.57;;;;;;;;;;5052113;28;20035;-59
2021/01/27 07:16:41;;;;;;;4.53;2.97;;;;;;;;;;5052340;28;20072;-59
2021/01/27 07:19:39;;;;;;;4.37;2.97;;;;;;;;;;5034245;28;20355;-60
2021/01/27 07:22:27;;;;;;;4.07;2.83;;;;;;;;;;5035082;28;20358;-59
2021/01/27 07:25:27;;;;;;;6.00;2.63;;;;;;;;;;5051520;28;20090;-59
2021/01/27 07:28:16;;;;;;;4.55;2.58;;;;;;;;;;5051975;28;20523;-59
2021/01/27 07:31:17;;;;;;;5.87;3.90;;;;;;;;;;5034186;28;20017;-59
2021/01/27 07:34:09;;;;;;;2.83;2.08;;;;;;;;;;5051760;28;20101;-60
2021/01/27 07:36:49;;;;;;;9.90;3.53;;;;;;;;;;5054400;28;20535;-60
2021/01/27 07:42:48;;;;;;;10.07;4.63;;;;;;;;;;5020454;28;20029;-59
2021/01/27 07:45:35;;;;;;;4.57;2.57;;;;;;;;;;5010034;28;20048;-59
2021/01/27 07:48:36;;;;;;;3.27;2.57;;;;;;;;;;5010742;28;20057;-60
2021/01/27 07:57:35;;;;;;;3.47;2.30;;;;;;;;;;4987721;28;20026;-60
2021/01/27 08:00:26;;;;;;;4.93;2.57;;;;;;;;;;4951666;29;20114;-59
2021/01/27 08:02:55;;;;;;;;;;;;;;;;;;4951712;29;20027;-59
2021/01/27 08:05:38;;;;;;;4.90;3.30;;;;;;;;;;4951178;28;19940;-59
2021/01/27 08:08:44;;;;;;;4.67;2.53;;;;;;;;;;4958846;28;20046;-60
2021/01/27 08:11:15;;;;;;;5.00;2.97;;;;;;;;;;4960379;28;20599;-59
2021/01/27 08:16:35;;;;;;;4.43;2.73;;;;;;;;;;4968279;28;20539;-60
2021/01/27 08:19:45;;;;;;;;;;;;;;;;;;;;;
2021/01/27 08:29:00;;;;;;;;;;;;;;;;;;;;;
2021/01/27 08:31:38;;;;;;;7.33;3.67;;;;;;;;;;5050960;28;20462;-59
2021/01/27 08:37:05;;;;;;;5.23;2.87;;;;;;;;;;5027236;28;20039;-59
2021/01/27 08:39:44;;;;;;;7.40;3.20;;;;;;;;;;5034034;28;20085;-60
2021/01/27 08:42:30;;;;;;;2.90;1.83;;;;;;;;;;5033967;28;20085;-59
2021/01/27 08:51:34;;;;;;;3.23;2.07;;;;;;;;;;5040384;28;20052;-60
2021/01/27 08:54:26;;;;;;;4.30;2.70;;;;;;;;;;5056332;28;20157;-60
2021/01/27 09:00:32;;;;;;;2.37;2.07;;;;;;;;;;5050904;28;20035;-60
2021/01/27 09:03:15;;;;;;;4.97;2.80;;;;;;;;;;5049608;28;20505;-60
2021/01/27 09:06:06;;;;;;;4.47;2.73;;;;;;;;;;5051115;28;20420;-60
2021/01/27 09:09:07;;;;;;;7.13;3.37;;;;;;;;;;5033220;28;20052;-60
2021/01/27 09:11:39;;;;;;;5.47;3.07;;;;;;;;;;5050264;28;20021;-60
2021/01/27 09:17:26;;;;;;;4.30;3.67;;;;;;;;;;4988558;28;20038;-60
2021/01/27 09:20:34;;;;;;;;;;;;;;;;;;;;;
2021/01/27 09:23:21;;;;;;;4.43;2.97;;;;;;;;;;4979191;28;20041;-60
2021/01/27 09:26:00;;;;;;;3.97;2.80;;;;;;;;;;4988915;28;20042;-60
2021/01/27 09:28:56;;;;;;;8.27;3.00;;;;;;;;;;4989662;28;20151;-60
2021/01/27 09:31:28;;;;;;;4.30;3.90;;;;;;;;;;4988492;28;20110;-60
2021/01/27 09:34:07;;;;;;;;;;;;;;;;;;;;;
2021/01/27 09:36:37;;;;;;;5.77;3.93;;;;;;;;;;5059038;28;20037;-60
2021/01/27 09:39:23;;;;;;;4.30;3.30;;;;;;;;;;5050122;28;20111;-60
2021/01/27 09:42:18;;;;;;;4.90;3.70;;;;;;;;;;5050632;28;20029;-60
2021/01/27 09:45:08;;;;;;;4.07;3.60;;;;;;;;;;5035139;28;20060;-60
2021/01/27 09:47:46;;;;;;;9.57;4.67;;;;;;;;;;5057204;28;20385;-60
2021/01/27 09:50:32;;;;;;;3.63;2.40;;;;;;;;;;5034391;28;20029;-60
2021/01/27 09:53:29;;;;;;;5.50;2.60;;;;;;;;;;5050572;28;20021;-60
2021/01/27 09:56:15;;;;;;;;;;;;;;;;;;;;;
2021/01/27 09:58:45;;;;;;;9.30;3.07;;;;;;;;;;5045373;28;20043;-60
2021/01/27 10:01:34;;;;;;;4.07;3.00;;;;;;;;;;5031741;28;20029;-60
2021/01/27 10:04:36;;;;;;;6.70;2.63;;;;;;;;;;5032627;28;20079;-60
2021/01/27 10:07:30;;;;;;;2.63;2.00;;;;;;;;;;5067328;28;20482;-60
2021/01/27 10:13:43;;;;;;;5.37;2.83;;;;;;;;;;5050400;28;20033;-60
2021/01/27 10:16:31;;;;;;;4.03;2.27;;;;;;;;;;5019475;28;20061;-60
2021/01/27 10:19:10;;;;;;;5.73;3.13;;;;;;;;;;5050145;28;20032;-60
2021/01/27 10:21:59;;;;;;;;;;;;;;;;;;;;;
2021/01/27 10:25:00;;;;;;;;;;;;;;;;;;;;;
2021/01/27 10:27:45;;;;;;;;;;;;;;;;;;5049543;28;20017;-60
2021/01/27 10:30:33;;;;;;;;;;;;;;;;;;;;;
2021/01/27 10:36:28;;;;;;;9.53;2.30;;;;;;;;;;5017511;28;20049;-61
2021/01/27 10:42:30;;;;;;;4.97;1.93;;;;;;;;;;4997598;28;20398;-60
2021/01/27 10:45:51;;;;;;;4.00;2.87;;;;;;;;;;5012223;28;20042;-60
2021/01/27 10:48:32;;;;;;;3.70;2.28;;;;;;;;;;4991783;28;20030;-60
2021/01/27 10:57:18;;;;;;;7.03;3.30;;;;;;;;;;5013204;28;20034;-60
2021/01/27 10:59:56;;;;;;;3.43;2.23;;;;;;;;;;5012216;28;20162;-60
2021/01/27 11:02:50;;;;;;;6.00;3.00;;;;;;;;;;5013471;28;20455;-59
2021/01/27 11:08:34;;;;;;;4.73;3.53;;;;;;;;;;5013683;28;20041;-59
2021/01/27 11:14:00;;;;;;;5.40;2.57;;;;;;;;;;5012929;28;20060;-59
2021/01/27 11:16:55;;;;;;;;;;;;;;;;;;;;;
2021/01/27 11:19:53;;;;;;;7.13;3.37;;;;;;;;;;5013221;28;20030;-60
2021/01/27 11:22:45;;;;;;;7.43;3.07;;;;;;;;;;4993933;28;20433;-60
2021/01/27 11:25:15;;;;;;;3.83;2.20;;;;;;;;;;4996632;28;20038;-60
2021/01/27 11:28:05;;;;;;;10.52;2.58;;;;;;;;;;5012122;28;20087;-60
2021/01/27 11:30:51;;;;;;;;;;;;;;;;;;;;;
2021/01/27 11:33:32;;;;;;;3.80;2.03;;;;;;;;;;4997830;28;20327;-60
2021/01/27 11:36:29;;;;;;;2.97;1.67;;;;;;;;;;4995621;28;20081;-61
2021/01/27 11:45:11;;;;;;;3.27;2.20;;;;;;;;;;5000174;28;20057;-60
2021/01/27 11:47:53;;;;;;;3.13;2.20;;;;;;;;;;5012809;28;20037;-60
2021/01/27 11:50:38;;;;;;;2.50;1.70;;;;;;;;;;5011046;28;20353;-60
2021/01/27 11:56:08;;;;;;;3.40;2.20;;;;;;;;;;5072595;28;20070;-60
2021/01/27 11:58:42;;;;;;;5.00;2.50;;;;;;;;;;5072898;28;20625;-60
2021/01/27 12:07:23;;;;;;;2.67;1.83;;;;;;;;;;5072297;28;20035;-60
2021/01/27 12:09:57;;;;;;;4.10;2.10;;;;;;;;;;5073230;28;20450;-60
2021/01/27 12:15:53;;;;;;;3.77;2.67;;;;;;;;;;5072555;28;20092;-60
2021/01/27 12:18:53;;;;;;;2.77;1.97;;;;;;;;;;5054800;28;20051;-61
2021/01/27 12:21:57;;;;;;;3.23;2.43;;;;;;;;;;4971578;28;20042;-60
2021/01/27 12:27:42;;;;;;;4.40;2.90;;;;;;;;;;5009763;28;20087;-60
2021/01/27 12:30:48;;;;;;;2.53;1.43;;;;;;;;;;5012051;28;20033;-60
2021/01/27 12:33:16;;;;;;;8.30;3.70;;;;;;;;;;5012328;28;20245;-60
2021/01/27 12:35:48;;;;;;;6.33;3.33;;;;;;;;;;5030977;28;20046;-61
2021/01/27 12:38:23;;;;;;;5.17;2.10;;;;;;;;;;5030549;28;20367;-60
2021/01/27 12:40:55;;;;;;;4.90;2.40;;;;;;;;;;5031343;28;20056;-60
2021/01/27 12:43:43;;;;;;;6.70;3.83;;;;;;;;;;5032008;28;20034;-60
2021/01/27 12:52:38;;;;;;;4.53;3.57;;;;;;;;;;4996708;28;20041;-60
2021/01/27 12:55:26;;;;;;;5.43;3.70;;;;;;;;;;5032802;28;20071;-60
2021/01/27 12:58:01;;;;;;;6.43;3.70;;;;;;;;;;5050395;28;20068;-60
2021/01/27 13:00:45;;;;;;;7.73;3.50;;;;;;;;;;5051699;28;20074;-60
2021/01/27 13:03:33;;;;;;;4.60;3.60;;;;;;;;;;5033741;28;20037;-60
2021/01/27 13:06:08;;;;;;;3.77;3.10;;;;;;;;;;5050619;28;20037;-60
2021/01/27 13:08:44;;;;;;;6.93;2.87;;;;;;;;;;5050927;28;20039;-60
2021/01/27 13:11:43;;;;;;;3.47;2.53;;;;;;;;;;5050516;28;20058;-60
2021/01/27 13:14:38;;;;;;;4.17;2.67;;;;;;;;;;5050588;28;20053;-60
2021/01/27 13:17:28;;;;;;;3.97;3.03;;;;;;;;;;5070868;28;20136;-60
2021/01/27 13:20:10;;;;;;;;;;;;;;;;;;;;;
2021/01/27 13:22:37;;;;;;;8.33;3.77;;;;;;;;;;5022893;28;20036;-60
2021/01/27 13:25:23;;;;;;;5.03;2.73;;;;;;;;;;5050120;28;20025;-60
2021/01/27 13:27:54;;;;;;;11.00;4.27;;;;;;;;;;5050397;28;20029;-60
2021/01/27 13:30:28;;;;;;;5.70;3.90;;;;;;;;;;5031984;28;20037;-60
2021/01/27 13:36:27;;;;;;;4.57;3.57;;;;;;;;;;5018753;28;20475;-60
2021/01/27 13:51:30;;;;;;;4.93;4.40;;;;;;;;;;4988899;28;20033;-60
2021/01/27 14:00:15;;;;;;;7.40;4.17;;;;;;;;;;5010564;28;20145;-60
2021/01/27 14:03:10;;;;;;;;;;;;;;;;;;;;;
2021/01/27 14:06:06;;;;;;;5.27;3.47;;;;;;;;;;5009786;28;20383;-60
2021/01/27 14:08:56;;;;;;;6.17;4.03;;;;;;;;;;5010682;28;20030;-60
2021/01/27 14:11:28;;;;;;;6.47;3.70;;;;;;;;;;5010900;28;20033;-60
2021/01/27 14:14:30;;;;;;;;;;;;;;;;;;;;;
2021/01/27 14:17:00;;;;;;;5.87;3.97;;;;;;;;;;5011360;28;20406;-60
2021/01/27 14:19:39;;;;;;;8.70;4.97;;;;;;;;;;4992005;28;20055;-60
2021/01/27 14:28:08;;;;;;;10.53;5.33;;;;;;;;;;5006692;28;20034;-60
2021/01/27 14:30:40;;;;;;;5.93;4.53;;;;;;;;;;5011573;28;20447;-60
2021/01/27 14:33:15;;;;;;;12.97;5.17;;;;;;;;;;5011656;28;20045;-60
2021/01/27 14:35:55;;;;;;;7.20;4.40;;;;;;;;;;5024576;28;20061;-60
2021/01/27 14:38:25;;;;;;;4.60;3.60;;;;;;;;;;5011709;28;20129;-60
2021/01/27 14:40:57;;;;;;;4.50;3.60;;;;;;;;;;5013118;28;20026;-60
2021/01/27 14:43:41;;;;;;;5.30;2.83;;;;;;;;;;4999410;28;20058;-60
2021/01/27 14:46:28;;;;;;;10.87;4.63;;;;;;;;;;5013816;28;20087;-60
2021/01/27 14:49:03;;;;;;;6.90;3.87;;;;;;;;;;5011686;28;20075;-60
2021/01/27 14:54:56;;;;;;;6.00;3.57;;;;;;;;;;5007277;28;20111;-60
2021/01/27 15:00:39;;;;;;;;;;;;;;;;;;;;;
2021/01/27 15:03:13;;;;;;;3.58;2.75;;;;;;;;;;5013106;28;20038;-60
2021/01/27 15:05:39;;;;;;;7.87;4.43;;;;;;;;;;5012963;28;20030;-60
2021/01/27 15:08:18;;;;;;;5.27;3.50;;;;;;;;;;5012652;28;20022;-60
2021/01/27 15:14:17;;;;;;;4.60;3.30;;;;;;;;;;5012765;28;20049;-60
2021/01/27 15:16:57;;;;;;;8.07;3.70;;;;;;;;;;5012282;28;20034;-60
2021/01/27 15:19:27;;;;;;;5.43;3.47;;;;;;;;;;5012987;28;20375;-60
2021/01/27 15:22:19;;;;;;;4.78;3.05;;;;;;;;;;5013662;28;20030;-60
2021/01/27 15:25:00;;;;;;;4.80;3.47;;;;;;;;;;5011935;28;20041;-60
2021/01/27 15:27:41;;;;;;;4.63;3.30;;;;;;;;;;5015587;28;20044;-60
2021/01/27 15:30:20;;;;;;;4.07;3.47;;;;;;;;;;5013933;28;20034;-60
2021/01/27 15:33:05;;;;;;;4.60;2.77;;;;;;;;;;5011501;28;20045;-60
2021/01/27 15:35:40;;;;;;;4.60;3.40;;;;;;;;;;5037163;27;20131;-61
2021/01/27 15:38:35;;;;;;;4.33;3.00;;;;;;;;;;5034347;28;20137;-60
2021/01/27 15:41:03;;;;;;;6.97;4.27;;;;;;;;;;5034057;28;20029;-60
2021/01/27 15:44:04;;;;;;;4.70;3.47;;;;;;;;;;5035037;28;20036;-60
2021/01/27 15:46:41;;;;;;;5.53;3.40;;;;;;;;;;5052194;28;20025;-60
2021/01/27 15:49:44;;;;;;;3.43;2.57;;;;;;;;;;5033494;28;20530;-60
2021/01/27 15:52:31;;;;;;;5.40;3.73;;;;;;;;;;5051714;28;20032;-60
2021/01/27 15:55:12;;;;;;;;;;;;;;;;;;;;;
2021/01/27 15:58:08;;;;;;;7.03;3.50;;;;;;;;;;5051836;28;20381;-60
2021/01/27 16:00:56;;;;;;;;;;;;;;;;;;;;;
2021/01/27 16:06:24;;;;;;;8.53;3.50;;;;;;;;;;5036754;28;20378;-60
2021/01/27 16:09:13;;;;;;;;;;;;;;;;;;;;;
2021/01/27 16:11:40;;;;;;;4.00;3.00;;;;;;;;;;5035522;28;20025;-60
2021/01/27 16:14:26;;;;;;;5.40;4.03;;;;;;;;;;5052166;28;20056;-60
2021/01/27 16:17:01;;;;;;;6.13;3.50;;;;;;;;;;5051506;28;20066;-60
2021/01/27 16:22:51;;;;;;;;;;;;;;;;;;;;;
2021/01/27 16:25:54;;;;;;;7.72;5.00;;;;;;;;;;4990248;28;20359;-61
2021/01/27 16:28:14;;;;;;;4.73;3.47;;;;;;;;;;5049864;28;20047;-60
2021/01/27 16:31:03;;;;;;;9.70;4.63;;;;;;;;;;5051540;28;20066;-61
2021/01/27 16:33:47;;;;;;;5.43;4.33;;;;;;;;;;5051354;28;20017;-60
2021/01/27 16:36:35;;;;;;;6.27;4.70;;;;;;;;;;5049691;27;20057;-60
2021/01/27 16:39:20;;;;;;;8.97;5.40;;;;;;;;;;5051190;28;20029;-60
2021/01/27 16:42:13;;;;;;;7.27;5.40;;;;;;;;;;5051567;28;20069;-61
2021/01/27 16:47:45;;;;;;;6.37;5.30;;;;;;;;;;5051173;28;20031;-60
2021/01/27 16:50:14;;;;;;;6.50;5.83;;;;;;;;;;5050734;28;20124;-60
2021/01/27 16:52:51;;;;;;;6.20;5.37;;;;;;;;;;5032296;28;20040;-60
2021/01/27 16:58:34;;;;;;;9.20;5.57;;;;;;;;;;5051052;28;20072;-61
2021/01/27 17:01:21;;;;;;;;;;;;;;;;;;;;;
2021/01/27 17:04:02;;;;;;;9.93;5.20;;;;;;;;;;5050745;28;20033;-60
2021/01/27 17:12:35;;;;;;;7.07;4.63;;;;;;;;;;5051028;28;20151;-60
2021/01/27 17:15:08;;;;;;;7.03;6.17;;;;;;;;;;5035252;28;20041;-60
2021/01/27 17:17:52;;;;;;;6.03;4.97;;;;;;;;;;5050716;28;20039;-60
2021/01/27 17:20:34;;;;;;;10.37;5.20;;;;;;;;;;5051898;28;20506;-60
2021/01/27 17:23:30;;;;;;;4.97;4.43;;;;;;;;;;5050987;28;20059;-60
2021/01/27 17:26:16;;;;;;;6.47;5.43;;;;;;;;;;5072032;28;20068;-60
2021/01/27 17:28:57;;;;;;;7.80;3.97;;;;;;;;;;5051205;28;20025;-60
2021/01/27 17:34:30;;;;;;;8.53;5.23;;;;;;;;;;5051730;28;19999;-60
2021/01/27 17:37:24;;;;;;;6.93;5.10;;;;;;;;;;5050557;28;20052;-60
2021/01/27 17:40:08;;;;;;;7.03;5.23;;;;;;;;;;5070963;28;20112;-60
2021/01/27 17:42:46;;;;;;;8.50;6.40;;;;;;;;;;5072106;28;20032;-60
2021/01/27 17:45:28;;;;;;;8.60;5.60;;;;;;;;;;5054198;28;20377;-60
2021/01/27 17:48:07;;;;;;;5.87;5.27;;;;;;;;;;5053226;28;20065;-64
2021/01/27 17:50:41;;;;;;;5.83;4.23;;;;;;;;;;5054998;28;20082;-60
2021/01/27 17:53:29;;;;;;;6.83;6.13;;;;;;;;;;5056957;28;20439;-60
2021/01/27 17:56:09;;;;;;;6.87;5.63;;;;;;;;;;5035303;28;20029;-60
2021/01/27 17:58:41;;;;;;;6.55;5.55;;;;;;;;;;5054381;28;20356;-60
2021/01/27 18:01:16;;;;;;;8.33;6.10;;;;;;;;;;5035704;28;20025;-60
2021/01/27 18:07:06;;;;;;;8.65;5.32;;;;;;;;;;5074382;28;20028;-60
2021/01/27 18:12:35;;;;;;;5.63;4.73;;;;;;;;;;5053789;28;20032;-60
2021/01/27 18:15:22;;;;;;;7.20;5.33;;;;;;;;;;5053842;28;20295;-60
2021/01/27 18:18:05;;;;;;;8.30;6.17;;;;;;;;;;5053272;28;20120;-60
2021/01/27 18:20:56;;;;;;;7.43;5.10;;;;;;;;;;5036046;28;20033;-60
2021/01/27 18:23:57;;;;;;;9.27;7.15;;;;;;;;;;5055746;28;20445;-60
2021/01/27 18:26:30;;;;;;;8.03;6.40;;;;;;;;;;5114565;27;20081;-59
2021/01/27 18:29:07;;;;;;;7.37;5.87;;;;;;;;;;5035569;28;20029;-59
2021/01/27 18:32:08;;;;;;;9.43;6.70;;;;;;;;;;5033505;28;20037;-59
2021/01/27 18:38:14;;;;;;;6.63;5.93;;;;;;;;;;5053045;28;20436;-59
2021/01/27 18:41:09;;;;;;;;;;;;;;;;;;;;;
2021/01/27 18:43:42;;;;;;;7.23;5.50;;;;;;;;;;5076684;28;20039;-59
2021/01/27 18:49:06;;;;;;;7.53;6.77;;;;;;;;;;5053331;28;20094;-59
2021/01/27 18:52:01;;;;;;;8.40;5.87;;;;;;;;;;5035198;28;20451;-59
2021/01/27 18:57:27;;;;;;;6.90;5.70;;;;;;;;;;5052752;28;20504;-59
2021/01/27 19:00:26;;;;;;;7.67;6.63;;;;;;;;;;5034126;28;20041;-59
2021/01/27 19:03:02;;;;;;;10.47;7.67;;;;;;;;;;5034755;28;20424;-59
2021/01/27 19:05:49;;;;;;;9.27;7.70;;;;;;;;;;5053519;28;20086;-59
2021/01/27 19:11:09;;;;;;;11.63;7.87;;;;;;;;;;5052976;28;20485;-59
2021/01/27 19:16:28;;;;;;;11.07;7.07;;;;;;;;;;5053435;28;20521;-59
2021/01/27 19:22:30;;;;;;;10.37;7.00;;;;;;;;;;5049634;28;20093;-59
2021/01/27 19:28:28;;;;;;;11.03;6.90;;;;;;;;;;5019087;28;20033;-59
2021/01/27 19:31:14;;;;;;;9.45;6.75;;;;;;;;;;5053801;28;20088;-59
2021/01/27 19:33:58;;;;;;;10.03;7.93;;;;;;;;;;5053177;28;20082;-59
2021/01/27 19:39:59;;;;;;;;;;;;;;;;;;;;;
2021/01/27 19:42:26;;;;;;;11.13;7.67;;;;;;;;;;5052908;28;20094;-59
2021/01/27 19:45:33;;;;;;;12.07;8.70;;;;;;;;;;5035163;28;20359;-59
2021/01/27 19:48:27;;;;;;;8.67;7.60;;;;;;;;;;5052151;28;20453;-59
2021/01/27 19:51:22;;;;;;;8.17;6.90;;;;;;;;;;5054070;28;20037;-59
2021/01/27 19:54:01;;;;;;;12.00;6.77;;;;;;;;;;5053544;28;20173;-59
2021/01/27 19:56:39;;;;;;;11.03;6.87;;;;;;;;;;5030961;28;20040;-59
2021/01/27 20:02:51;;;;;;;11.07;7.97;;;;;;;;;;5052932;28;20037;-59
2021/01/27 20:05:30;;;;;;;12.43;9.47;;;;;;;;;;5053610;28;20029;-59
2021/01/27 20:08:19;;;;;;;13.90;11.40;;;;;;;;;;5054604;28;20364;-59
2021/01/27 20:11:14;;;;;;;9.77;8.77;;;;;;;;;;5050197;28;20462;-59
2021/01/27 20:16:57;;;;;;;11.70;9.97;;;;;;;;;;5017115;28;20490;-59
2021/01/27 20:19:47;;;;;;;10.07;9.07;;;;;;;;;;5052852;28;20025;-59
2021/01/27 20:22:25;;;;;;;11.15;9.10;;;;;;;;;;5052443;28;20024;-59
2021/01/27 20:25:09;;;;;;;9.97;8.30;;;;;;;;;;5049154;28;20490;-59
2021/01/27 20:27:58;;;;;;;9.93;8.33;;;;;;;;;;5033218;28;20493;-59
2021/01/27 20:30:53;;;;;;;11.87;9.73;;;;;;;;;;5054427;28;20335;-59
2021/01/27 20:33:30;;;;;;;8.60;7.73;;;;;;;;;;5054073;28;20565;-59
2021/01/27 20:36:36;;;;;;;10.87;8.53;;;;;;;;;;5051611;27;20064;-59
2021/01/27 20:39:20;;;;;;;11.73;10.07;;;;;;;;;;5051186;28;20433;-59
2021/01/27 20:41:46;;;;;;;9.23;7.93;;;;;;;;;;5032269;28;20090;-59
2021/01/27 20:47:07;;;;;;;9.73;7.20;;;;;;;;;;5051006;28;20056;-59
2021/01/27 20:50:04;;;;;;;10.73;8.03;;;;;;;;;;5049659;28;20029;-59
2021/01/27 20:53:03;;;;;;;10.23;7.20;;;;;;;;;;5050670;28;20025;-59
2021/01/27 20:59:03;;;;;;;10.53;7.87;;;;;;;;;;4989952;28;20072;-59
2021/01/27 21:05:10;;;;;;;;;;;;;;;;;;;;;
2021/01/27 21:07:59;;;;;;;11.53;8.93;;;;;;;;;;5048720;28;20033;-59
2021/01/27 21:13:58;;;;;;;10.97;8.03;;;;;;;;;;5051158;28;20033;-59
2021/01/27 21:16:58;;;;;;;9.37;6.90;;;;;;;;;;5033104;28;20068;-59
2021/01/27 21:19:54;;;;;;;9.73;8.02;;;;;;;;;;5052051;28;20060;-59
2021/01/27 21:22:20;;;;;;;7.63;6.87;;;;;;;;;;5051321;28;20029;-59
2021/01/27 21:25:16;;;;;;;8.83;7.83;;;;;;;;;;5051091;28;20041;-59
2021/01/27 21:31:07;;;;;;;;;;;;;;;;;;;;;
2021/01/27 21:33:46;;;;;;;9.27;6.90;;;;;;;;;;5029498;28;20397;-59
2021/01/27 21:36:28;;;;;;;11.37;6.90;;;;;;;;;;5028703;28;20045;-59
2021/01/27 21:39:31;;;;;;;7.63;5.88;;;;;;;;;;5029618;28;20048;-59
2021/01/27 21:42:17;;;;;;;8.07;5.87;;;;;;;;;;4950951;29;20027;-59
2021/01/27 21:47:44;;;;;;;;;;;;;;;;;;;;;
2021/01/27 21:50:16;;;;;;;5.87;4.17;;;;;;;;;;4951374;29;20031;-59
2021/01/27 21:52:48;;;;;;;6.60;5.05;;;;;;;;;;4963929;28;20050;-59
2021/01/27 21:58:28;;;;;;;5.68;4.40;;;;;;;;;;4967979;28;20031;-59
2021/01/27 22:00:57;;;;;;;5.03;4.50;;;;;;;;;;4971799;28;20026;-59
2021/01/27 22:03:47;;;;;;;8.13;5.33;;;;;;;;;;4973608;28;20030;-59
2021/01/27 22:06:32;;;;;;;6.13;5.03;;;;;;;;;;4974486;28;20130;-59